sensor_id;sensor_type;location;lat;lon;timestamp;temperature;humidity
54429;DHT22;40337;52.978;6.310;2023-04-15T00:00:27;6.60;99.90
54429;DHT22;40337;52.978;6.310;2023-04-15T00:02:53;6.60;99.90
54429;DHT22;40337;52.978;6.310;2023-04-15T00:05:19;6.60;99.90
54429;DHT22;40337;52.978;6.310;2023-04-15T00:07:45;6.50;99.90
54429;DHT22;40337;52.978;6.310;2023-04-15T00:10:12;6.50;99.90
54429;DHT22;40337;52.978;6.310;2023-04-15T00:12:38;6.50;99.90
54429;DHT22;40337;52.978;6.310;2023-04-15T00:15:04;6.50;99.90
54429;DHT22;40337;52.978;6.310;2023-04-15T00:17:31;6.50;99.90
54429;DHT22;40337;52.978;6.310;2023-04-15T00:19:56;6.50;99.90
54429;DHT22;40337;52.978;6.310;2023-04-15T00:22:24;6.50;99.90
54429;DHT22;40337;52.978;6.310;2023-04-15T00:24:51;6.40;99.90
54429;DHT22;40337;52.978;6.310;2023-04-15T00:27:16;6.40;99.90
54429;DHT22;40337;52.978;6.310;2023-04-15T00:29:42;6.40;99.90
54429;DHT22;40337;52.978;6.310;2023-04-15T00:32:07;6.40;99.90
54429;DHT22;40337;52.978;6.310;2023-04-15T00:34:33;6.40;99.90
54429;DHT22;40337;52.978;6.310;2023-04-15T00:36:59;6.40;99.90
54429;DHT22;40337;52.978;6.310;2023-04-15T00:39:25;6.40;99.90
54429;DHT22;40337;52.978;6.310;2023-04-15T00:41:50;6.40;99.90
54429;DHT22;40337;52.978;6.310;2023-04-15T00:44:16;6.30;99.90
54429;DHT22;40337;52.978;6.310;2023-04-15T00:46:43;6.40;99.90
54429;DHT22;40337;52.978;6.310;2023-04-15T00:49:09;6.30;99.90
54429;DHT22;40337;52.978;6.310;2023-04-15T00:51:35;6.30;99.90
54429;DHT22;40337;52.978;6.310;2023-04-15T00:54:04;6.30;99.90
54429;DHT22;40337;52.978;6.310;2023-04-15T00:56:34;6.30;99.90
54429;DHT22;40337;52.978;6.310;2023-04-15T00:59:00;6.30;99.90
54429;DHT22;40337;52.978;6.310;2023-04-15T01:01:27;6.20;99.90
54429;DHT22;40337;52.978;6.310;2023-04-15T01:03:55;6.20;99.90
54429;DHT22;40337;52.978;6.310;2023-04-15T01:06:22;6.30;99.90
54429;DHT22;40337;52.978;6.310;2023-04-15T01:08:47;6.20;99.90
54429;DHT22;40337;52.978;6.310;2023-04-15T01:11:14;6.20;99.90
54429;DHT22;40337;52.978;6.310;2023-04-15T01:13:40;6.10;99.90
54429;DHT22;40337;52.978;6.310;2023-04-15T01:16:07;6.10;99.90
54429;DHT22;40337;52.978;6.310;2023-04-15T01:18:33;6.00;99.90
54429;DHT22;40337;52.978;6.310;2023-04-15T01:21:00;6.00;99.90
54429;DHT22;40337;52.978;6.310;2023-04-15T01:23:26;6.00;99.90
54429;DHT22;40337;52.978;6.310;2023-04-15T01:25:52;6.00;99.90
54429;DHT22;40337;52.978;6.310;2023-04-15T01:28:18;6.00;99.90
54429;DHT22;40337;52.978;6.310;2023-04-15T01:30:44;5.90;99.90
54429;DHT22;40337;52.978;6.310;2023-04-15T01:33:10;5.90;99.90
54429;DHT22;40337;52.978;6.310;2023-04-15T01:35:36;5.90;99.90
54429;DHT22;40337;52.978;6.310;2023-04-15T01:38:05;5.80;99.90
54429;DHT22;40337;52.978;6.310;2023-04-15T01:40:32;5.80;99.90
54429;DHT22;40337;52.978;6.310;2023-04-15T01:42:58;5.80;99.90
54429;DHT22;40337;52.978;6.310;2023-04-15T01:45:23;5.80;99.90
54429;DHT22;40337;52.978;6.310;2023-04-15T01:47:49;5.70;99.90
54429;DHT22;40337;52.978;6.310;2023-04-15T01:50:15;5.70;99.90
54429;DHT22;40337;52.978;6.310;2023-04-15T01:52:40;5.70;99.90
54429;DHT22;40337;52.978;6.310;2023-04-15T01:55:07;5.60;99.90
54429;DHT22;40337;52.978;6.310;2023-04-15T01:57:33;5.60;99.90
54429;DHT22;40337;52.978;6.310;2023-04-15T01:59:59;5.60;99.90
54429;DHT22;40337;52.978;6.310;2023-04-15T02:02:25;5.60;99.90
54429;DHT22;40337;52.978;6.310;2023-04-15T02:04:50;5.50;99.90
54429;DHT22;40337;52.978;6.310;2023-04-15T02:07:16;5.50;99.90
54429;DHT22;40337;52.978;6.310;2023-04-15T02:09:42;5.50;99.90
54429;DHT22;40337;52.978;6.310;2023-04-15T02:12:08;5.50;99.90
54429;DHT22;40337;52.978;6.310;2023-04-15T02:14:34;5.40;99.90
54429;DHT22;40337;52.978;6.310;2023-04-15T02:16:59;5.40;99.90
54429;DHT22;40337;52.978;6.310;2023-04-15T02:19:32;5.40;99.90
54429;DHT22;40337;52.978;6.310;2023-04-15T02:21:57;5.40;99.90
54429;DHT22;40337;52.978;6.310;2023-04-15T02:24:23;5.40;99.90
54429;DHT22;40337;52.978;6.310;2023-04-15T02:26:48;5.40;99.90
54429;DHT22;40337;52.978;6.310;2023-04-15T02:29:14;5.40;99.90
54429;DHT22;40337;52.978;6.310;2023-04-15T02:31:39;5.30;99.90
54429;DHT22;40337;52.978;6.310;2023-04-15T02:34:06;5.30;99.90
54429;DHT22;40337;52.978;6.310;2023-04-15T02:36:32;5.30;99.90
54429;DHT22;40337;52.978;6.310;2023-04-15T02:38:59;5.30;99.90
54429;DHT22;40337;52.978;6.310;2023-04-15T02:41:24;5.30;99.90
54429;DHT22;40337;52.978;6.310;2023-04-15T02:43:52;5.30;99.90
54429;DHT22;40337;52.978;6.310;2023-04-15T02:46:17;5.30;99.90
54429;DHT22;40337;52.978;6.310;2023-04-15T02:48:43;5.20;99.90
54429;DHT22;40337;52.978;6.310;2023-04-15T02:51:13;5.20;99.90
54429;DHT22;40337;52.978;6.310;2023-04-15T02:53:38;5.20;99.90
54429;DHT22;40337;52.978;6.310;2023-04-15T02:56:06;5.20;99.90
54429;DHT22;40337;52.978;6.310;2023-04-15T02:58:33;5.20;99.90
54429;DHT22;40337;52.978;6.310;2023-04-15T03:00:59;5.20;99.90
54429;DHT22;40337;52.978;6.310;2023-04-15T03:03:25;5.20;99.90
54429;DHT22;40337;52.978;6.310;2023-04-15T03:05:52;5.20;99.90
54429;DHT22;40337;52.978;6.310;2023-04-15T03:08:17;5.20;99.90
54429;DHT22;40337;52.978;6.310;2023-04-15T03:10:43;5.10;99.90
54429;DHT22;40337;52.978;6.310;2023-04-15T03:13:09;5.10;99.90
54429;DHT22;40337;52.978;6.310;2023-04-15T03:15:35;5.10;99.90
54429;DHT22;40337;52.978;6.310;2023-04-15T03:18:00;5.10;99.90
54429;DHT22;40337;52.978;6.310;2023-04-15T03:20:26;5.00;99.90
54429;DHT22;40337;52.978;6.310;2023-04-15T03:22:51;5.00;99.90
54429;DHT22;40337;52.978;6.310;2023-04-15T03:25:17;5.00;99.90
54429;DHT22;40337;52.978;6.310;2023-04-15T03:27:43;5.00;99.90
54429;DHT22;40337;52.978;6.310;2023-04-15T03:30:08;4.90;99.90
54429;DHT22;40337;52.978;6.310;2023-04-15T03:32:34;4.90;99.90
54429;DHT22;40337;52.978;6.310;2023-04-15T03:35:00;4.90;99.90
54429;DHT22;40337;52.978;6.310;2023-04-15T03:37:25;4.90;99.90
54429;DHT22;40337;52.978;6.310;2023-04-15T03:39:51;4.80;99.90
54429;DHT22;40337;52.978;6.310;2023-04-15T03:42:17;4.80;99.90
54429;DHT22;40337;52.978;6.310;2023-04-15T03:44:42;4.80;99.90
54429;DHT22;40337;52.978;6.310;2023-04-15T03:47:08;4.80;99.90
54429;DHT22;40337;52.978;6.310;2023-04-15T03:49:34;4.70;99.90
54429;DHT22;40337;52.978;6.310;2023-04-15T03:52:00;4.70;99.90
54429;DHT22;40337;52.978;6.310;2023-04-15T03:54:25;4.70;99.90
54429;DHT22;40337;52.978;6.310;2023-04-15T03:56:51;4.70;99.90
54429;DHT22;40337;52.978;6.310;2023-04-15T03:59:16;4.70;99.90
54429;DHT22;40337;52.978;6.310;2023-04-15T04:01:42;4.60;99.90
54429;DHT22;40337;52.978;6.310;2023-04-15T04:04:07;4.60;99.90
54429;DHT22;40337;52.978;6.310;2023-04-15T04:06:33;4.60;99.90
54429;DHT22;40337;52.978;6.310;2023-04-15T04:08:59;4.50;99.90
54429;DHT22;40337;52.978;6.310;2023-04-15T04:11:25;4.50;99.90
54429;DHT22;40337;52.978;6.310;2023-04-15T04:13:52;4.50;99.90
54429;DHT22;40337;52.978;6.310;2023-04-15T04:16:18;4.50;99.90
54429;DHT22;40337;52.978;6.310;2023-04-15T04:18:44;4.50;99.90
54429;DHT22;40337;52.978;6.310;2023-04-15T04:21:09;4.50;99.90
54429;DHT22;40337;52.978;6.310;2023-04-15T04:23:35;4.40;99.90
54429;DHT22;40337;52.978;6.310;2023-04-15T04:26:01;4.40;99.90
54429;DHT22;40337;52.978;6.310;2023-04-15T04:28:27;4.40;99.90
54429;DHT22;40337;52.978;6.310;2023-04-15T04:30:52;4.40;99.90
54429;DHT22;40337;52.978;6.310;2023-04-15T04:33:18;4.40;99.90
54429;DHT22;40337;52.978;6.310;2023-04-15T04:35:43;4.40;99.90
54429;DHT22;40337;52.978;6.310;2023-04-15T04:38:09;4.40;99.90
54429;DHT22;40337;52.978;6.310;2023-04-15T04:40:35;4.40;99.90
54429;DHT22;40337;52.978;6.310;2023-04-15T04:43:01;4.40;99.90
54429;DHT22;40337;52.978;6.310;2023-04-15T04:45:26;4.30;99.90
54429;DHT22;40337;52.978;6.310;2023-04-15T04:47:52;4.40;99.90
54429;DHT22;40337;52.978;6.310;2023-04-15T04:50:17;4.30;99.90
54429;DHT22;40337;52.978;6.310;2023-04-15T04:52:43;4.30;99.90
54429;DHT22;40337;52.978;6.310;2023-04-15T04:55:09;4.30;99.90
54429;DHT22;40337;52.978;6.310;2023-04-15T04:57:34;4.30;99.90
54429;DHT22;40337;52.978;6.310;2023-04-15T05:00:01;4.30;99.90
54429;DHT22;40337;52.978;6.310;2023-04-15T05:02:27;4.30;99.90
54429;DHT22;40337;52.978;6.310;2023-04-15T05:04:53;4.30;99.90
54429;DHT22;40337;52.978;6.310;2023-04-15T05:07:19;4.30;99.90
54429;DHT22;40337;52.978;6.310;2023-04-15T05:09:45;4.40;99.90
54429;DHT22;40337;52.978;6.310;2023-04-15T05:12:11;4.40;99.90
54429;DHT22;40337;52.978;6.310;2023-04-15T05:14:42;4.40;99.90
54429;DHT22;40337;52.978;6.310;2023-04-15T05:17:08;4.50;99.90
54429;DHT22;40337;52.978;6.310;2023-04-15T05:19:34;4.50;99.90
54429;DHT22;40337;52.978;6.310;2023-04-15T05:21:59;4.50;99.90
54429;DHT22;40337;52.978;6.310;2023-04-15T05:24:25;4.50;99.90
54429;DHT22;40337;52.978;6.310;2023-04-15T05:26:51;4.60;99.90
54429;DHT22;40337;52.978;6.310;2023-04-15T05:29:17;4.60;99.90
54429;DHT22;40337;52.978;6.310;2023-04-15T05:31:42;4.70;99.90
54429;DHT22;40337;52.978;6.310;2023-04-15T05:34:08;4.80;99.90
54429;DHT22;40337;52.978;6.310;2023-04-15T05:36:34;4.80;99.90
54429;DHT22;40337;52.978;6.310;2023-04-15T05:39:00;5.00;99.90
54429;DHT22;40337;52.978;6.310;2023-04-15T05:41:26;5.00;99.90
54429;DHT22;40337;52.978;6.310;2023-04-15T05:43:51;5.10;99.90
54429;DHT22;40337;52.978;6.310;2023-04-15T05:46:17;5.20;99.90
54429;DHT22;40337;52.978;6.310;2023-04-15T05:48:42;5.20;99.90
54429;DHT22;40337;52.978;6.310;2023-04-15T05:51:08;5.30;99.90
54429;DHT22;40337;52.978;6.310;2023-04-15T05:53:34;5.40;99.90
54429;DHT22;40337;52.978;6.310;2023-04-15T05:56:00;5.40;99.90
54429;DHT22;40337;52.978;6.310;2023-04-15T05:58:25;5.50;99.90
54429;DHT22;40337;52.978;6.310;2023-04-15T06:00:51;5.50;99.90
54429;DHT22;40337;52.978;6.310;2023-04-15T06:03:17;5.60;99.90
54429;DHT22;40337;52.978;6.310;2023-04-15T06:05:43;5.70;99.90
54429;DHT22;40337;52.978;6.310;2023-04-15T06:08:09;5.80;99.90
54429;DHT22;40337;52.978;6.310;2023-04-15T06:10:36;5.90;99.90
54429;DHT22;40337;52.978;6.310;2023-04-15T06:13:05;6.00;99.90
54429;DHT22;40337;52.978;6.310;2023-04-15T06:15:31;6.00;99.90
54429;DHT22;40337;52.978;6.310;2023-04-15T06:17:56;6.10;99.90
54429;DHT22;40337;52.978;6.310;2023-04-15T06:20:22;6.10;99.90
54429;DHT22;40337;52.978;6.310;2023-04-15T06:22:48;6.20;99.90
54429;DHT22;40337;52.978;6.310;2023-04-15T06:25:14;6.20;99.90
54429;DHT22;40337;52.978;6.310;2023-04-15T06:27:40;6.20;99.90
54429;DHT22;40337;52.978;6.310;2023-04-15T06:30:06;6.30;99.90
54429;DHT22;40337;52.978;6.310;2023-04-15T06:32:32;6.40;99.90
54429;DHT22;40337;52.978;6.310;2023-04-15T06:34:58;6.40;99.90
54429;DHT22;40337;52.978;6.310;2023-04-15T06:37:23;6.50;99.90
54429;DHT22;40337;52.978;6.310;2023-04-15T06:39:49;6.60;99.90
54429;DHT22;40337;52.978;6.310;2023-04-15T06:42:14;6.70;99.90
54429;DHT22;40337;52.978;6.310;2023-04-15T06:44:40;6.80;99.90
54429;DHT22;40337;52.978;6.310;2023-04-15T06:47:06;6.90;99.90
54429;DHT22;40337;52.978;6.310;2023-04-15T06:49:33;7.10;99.90
54429;DHT22;40337;52.978;6.310;2023-04-15T06:51:59;7.20;99.90
54429;DHT22;40337;52.978;6.310;2023-04-15T06:54:25;7.40;99.90
54429;DHT22;40337;52.978;6.310;2023-04-15T06:56:51;7.50;99.90
54429;DHT22;40337;52.978;6.310;2023-04-15T06:59:16;7.70;99.90
54429;DHT22;40337;52.978;6.310;2023-04-15T07:01:42;7.80;99.90
54429;DHT22;40337;52.978;6.310;2023-04-15T07:04:08;7.90;99.90
54429;DHT22;40337;52.978;6.310;2023-04-15T07:06:33;8.00;99.90
54429;DHT22;40337;52.978;6.310;2023-04-15T07:09:00;8.20;99.90
54429;DHT22;40337;52.978;6.310;2023-04-15T07:11:26;8.20;99.90
54429;DHT22;40337;52.978;6.310;2023-04-15T07:13:51;8.40;99.90
54429;DHT22;40337;52.978;6.310;2023-04-15T07:16:17;8.50;99.90
54429;DHT22;40337;52.978;6.310;2023-04-15T07:18:43;8.60;99.90
54429;DHT22;40337;52.978;6.310;2023-04-15T07:21:09;8.70;99.90
54429;DHT22;40337;52.978;6.310;2023-04-15T07:23:34;8.80;99.90
54429;DHT22;40337;52.978;6.310;2023-04-15T07:26:00;9.00;99.90
54429;DHT22;40337;52.978;6.310;2023-04-15T07:28:26;9.20;99.90
54429;DHT22;40337;52.978;6.310;2023-04-15T07:30:52;9.40;99.90
54429;DHT22;40337;52.978;6.310;2023-04-15T07:33:17;9.70;99.90
54429;DHT22;40337;52.978;6.310;2023-04-15T07:35:43;9.90;99.90
54429;DHT22;40337;52.978;6.310;2023-04-15T07:38:09;10.10;99.90
54429;DHT22;40337;52.978;6.310;2023-04-15T07:40:37;10.30;99.90
54429;DHT22;40337;52.978;6.310;2023-04-15T07:43:03;10.30;99.90
54429;DHT22;40337;52.978;6.310;2023-04-15T07:45:30;10.50;99.90
54429;DHT22;40337;52.978;6.310;2023-04-15T07:47:55;10.50;99.90
54429;DHT22;40337;52.978;6.310;2023-04-15T07:50:21;10.50;99.90
54429;DHT22;40337;52.978;6.310;2023-04-15T07:52:48;10.50;99.90
54429;DHT22;40337;52.978;6.310;2023-04-15T07:55:14;10.50;99.90
54429;DHT22;40337;52.978;6.310;2023-04-15T07:57:43;10.50;99.90
54429;DHT22;40337;52.978;6.310;2023-04-15T08:00:09;10.60;99.90
54429;DHT22;40337;52.978;6.310;2023-04-15T08:02:35;10.50;99.90
54429;DHT22;40337;52.978;6.310;2023-04-15T08:05:01;10.50;99.90
54429;DHT22;40337;52.978;6.310;2023-04-15T08:07:28;10.50;99.90
54429;DHT22;40337;52.978;6.310;2023-04-15T08:09:54;10.50;99.90
54429;DHT22;40337;52.978;6.310;2023-04-15T08:12:20;10.60;99.90
54429;DHT22;40337;52.978;6.310;2023-04-15T08:14:46;10.50;99.90
54429;DHT22;40337;52.978;6.310;2023-04-15T08:17:11;10.50;99.90
54429;DHT22;40337;52.978;6.310;2023-04-15T08:19:37;10.40;99.90
54429;DHT22;40337;52.978;6.310;2023-04-15T08:22:02;10.30;99.90
54429;DHT22;40337;52.978;6.310;2023-04-15T08:24:29;10.20;99.90
54429;DHT22;40337;52.978;6.310;2023-04-15T08:26:55;10.10;99.90
54429;DHT22;40337;52.978;6.310;2023-04-15T08:29:21;10.10;99.90
54429;DHT22;40337;52.978;6.310;2023-04-15T08:31:47;10.10;99.90
54429;DHT22;40337;52.978;6.310;2023-04-15T08:34:13;10.10;99.90
54429;DHT22;40337;52.978;6.310;2023-04-15T08:36:39;10.00;99.90
54429;DHT22;40337;52.978;6.310;2023-04-15T08:39:04;10.00;99.90
54429;DHT22;40337;52.978;6.310;2023-04-15T08:41:45;10.10;99.90
54429;DHT22;40337;52.978;6.310;2023-04-15T08:44:12;10.10;99.90
54429;DHT22;40337;52.978;6.310;2023-04-15T08:46:38;10.20;99.90
54429;DHT22;40337;52.978;6.310;2023-04-15T08:49:09;10.10;99.90
54429;DHT22;40337;52.978;6.310;2023-04-15T08:51:35;10.10;99.90
54429;DHT22;40337;52.978;6.310;2023-04-15T08:54:01;9.90;99.90
54429;DHT22;40337;52.978;6.310;2023-04-15T08:56:30;9.90;99.90
54429;DHT22;40337;52.978;6.310;2023-04-15T08:58:58;9.80;99.90
54429;DHT22;40337;52.978;6.310;2023-04-15T09:01:24;9.80;99.90
54429;DHT22;40337;52.978;6.310;2023-04-15T09:03:50;9.70;99.90
54429;DHT22;40337;52.978;6.310;2023-04-15T09:06:17;9.70;99.90
54429;DHT22;40337;52.978;6.310;2023-04-15T09:08:43;9.70;99.90
54429;DHT22;40337;52.978;6.310;2023-04-15T09:11:09;9.70;99.90
54429;DHT22;40337;52.978;6.310;2023-04-15T09:13:34;9.70;99.90
54429;DHT22;40337;52.978;6.310;2023-04-15T09:16:04;9.70;99.90
54429;DHT22;40337;52.978;6.310;2023-04-15T09:18:32;9.70;99.90
54429;DHT22;40337;52.978;6.310;2023-04-15T09:21:12;9.60;99.90
54429;DHT22;40337;52.978;6.310;2023-04-15T09:23:40;9.70;99.90
54429;DHT22;40337;52.978;6.310;2023-04-15T09:26:06;9.80;99.90
54429;DHT22;40337;52.978;6.310;2023-04-15T09:28:33;9.90;99.90
54429;DHT22;40337;52.978;6.310;2023-04-15T09:31:05;9.90;99.90
54429;DHT22;40337;52.978;6.310;2023-04-15T09:33:31;9.90;99.90
54429;DHT22;40337;52.978;6.310;2023-04-15T09:36:04;9.90;99.90
54429;DHT22;40337;52.978;6.310;2023-04-15T09:38:30;9.80;99.90
54429;DHT22;40337;52.978;6.310;2023-04-15T09:40:57;9.80;99.90
54429;DHT22;40337;52.978;6.310;2023-04-15T09:43:39;9.70;99.90
54429;DHT22;40337;52.978;6.310;2023-04-15T09:46:05;9.60;99.90
54429;DHT22;40337;52.978;6.310;2023-04-15T09:48:30;9.60;99.90
54429;DHT22;40337;52.978;6.310;2023-04-15T09:51:00;9.60;99.90
54429;DHT22;40337;52.978;6.310;2023-04-15T09:53:26;9.60;99.90
54429;DHT22;40337;52.978;6.310;2023-04-15T09:55:57;9.70;99.90
54429;DHT22;40337;52.978;6.310;2023-04-15T09:58:23;10.00;99.90
54429;DHT22;40337;52.978;6.310;2023-04-15T10:00:50;10.20;99.90
54429;DHT22;40337;52.978;6.310;2023-04-15T10:05:48;10.70;99.90
54429;DHT22;40337;52.978;6.310;2023-04-15T10:08:17;10.70;99.90
54429;DHT22;40337;52.978;6.310;2023-04-15T10:10:45;10.60;99.90
54429;DHT22;40337;52.978;6.310;2023-04-15T10:13:13;10.80;99.90
54429;DHT22;40337;52.978;6.310;2023-04-15T10:15:42;10.80;99.90
54429;DHT22;40337;52.978;6.310;2023-04-15T10:18:09;11.00;99.90
54429;DHT22;40337;52.978;6.310;2023-04-15T10:20:35;11.00;99.90
54429;DHT22;40337;52.978;6.310;2023-04-15T10:23:02;11.10;99.90
54429;DHT22;40337;52.978;6.310;2023-04-15T10:25:28;11.10;99.90
54429;DHT22;40337;52.978;6.310;2023-04-15T10:27:55;11.10;99.90
54429;DHT22;40337;52.978;6.310;2023-04-15T10:30:21;11.10;99.90
54429;DHT22;40337;52.978;6.310;2023-04-15T10:32:47;11.00;99.90
54429;DHT22;40337;52.978;6.310;2023-04-15T10:35:14;11.00;99.90
54429;DHT22;40337;52.978;6.310;2023-04-15T10:37:40;11.00;99.90
54429;DHT22;40337;52.978;6.310;2023-04-15T10:40:26;11.00;99.90
54429;DHT22;40337;52.978;6.310;2023-04-15T10:42:56;10.90;99.90
54429;DHT22;40337;52.978;6.310;2023-04-15T10:45:25;10.80;99.90
54429;DHT22;40337;52.978;6.310;2023-04-15T10:47:54;10.80;99.90
54429;DHT22;40337;52.978;6.310;2023-04-15T10:50:20;10.80;99.90
54429;DHT22;40337;52.978;6.310;2023-04-15T10:52:50;10.70;99.90
54429;DHT22;40337;52.978;6.310;2023-04-15T10:55:34;10.60;99.90
54429;DHT22;40337;52.978;6.310;2023-04-15T10:58:00;10.60;99.90
54429;DHT22;40337;52.978;6.310;2023-04-15T11:00:31;10.60;99.90
54429;DHT22;40337;52.978;6.310;2023-04-15T11:02:57;10.60;99.90
54429;DHT22;40337;52.978;6.310;2023-04-15T11:05:50;10.50;99.90
54429;DHT22;40337;52.978;6.310;2023-04-15T11:08:16;10.50;99.90
54429;DHT22;40337;52.978;6.310;2023-04-15T11:15:46;10.40;99.90
54429;DHT22;40337;52.978;6.310;2023-04-15T11:20:40;10.40;99.90
54429;DHT22;40337;52.978;6.310;2023-04-15T11:23:07;10.40;99.90
54429;DHT22;40337;52.978;6.310;2023-04-15T11:25:34;10.40;99.90
54429;DHT22;40337;52.978;6.310;2023-04-15T11:28:01;10.40;99.90
54429;DHT22;40337;52.978;6.310;2023-04-15T11:30:29;10.40;99.90
54429;DHT22;40337;52.978;6.310;2023-04-15T11:32:58;10.50;99.90
54429;DHT22;40337;52.978;6.310;2023-04-15T11:35:24;10.50;99.90
54429;DHT22;40337;52.978;6.310;2023-04-15T11:37:50;10.50;99.90
54429;DHT22;40337;52.978;6.310;2023-04-15T11:40:19;10.50;99.90
54429;DHT22;40337;52.978;6.310;2023-04-15T11:42:46;10.50;99.90
54429;DHT22;40337;52.978;6.310;2023-04-15T11:45:14;10.40;99.90
54429;DHT22;40337;52.978;6.310;2023-04-15T11:47:41;10.40;99.90
54429;DHT22;40337;52.978;6.310;2023-04-15T11:52:56;10.50;99.90
54429;DHT22;40337;52.978;6.310;2023-04-15T11:55:23;10.50;99.90
54429;DHT22;40337;52.978;6.310;2023-04-15T12:00:51;10.40;99.90
54429;DHT22;40337;52.978;6.310;2023-04-15T12:03:36;10.40;99.90
54429;DHT22;40337;52.978;6.310;2023-04-15T12:06:19;10.40;99.90
54429;DHT22;40337;52.978;6.310;2023-04-15T12:11:44;10.30;99.90
54429;DHT22;40337;52.978;6.310;2023-04-15T12:14:25;10.40;99.90
54429;DHT22;40337;52.978;6.310;2023-04-15T12:17:03;10.70;99.90
54429;DHT22;40337;52.978;6.310;2023-04-15T12:22:17;10.80;99.90
54429;DHT22;40337;52.978;6.310;2023-04-15T12:24:43;10.60;99.90
54429;DHT22;40337;52.978;6.310;2023-04-15T12:27:14;10.60;99.90
54429;DHT22;40337;52.978;6.310;2023-04-15T12:29:41;10.60;99.90
54429;DHT22;40337;52.978;6.310;2023-04-15T12:34:36;10.60;99.90
54429;DHT22;40337;52.978;6.310;2023-04-15T12:37:03;10.60;99.90
54429;DHT22;40337;52.978;6.310;2023-04-15T12:39:37;10.50;99.90
54429;DHT22;40337;52.978;6.310;2023-04-15T12:42:04;10.40;99.90
54429;DHT22;40337;52.978;6.310;2023-04-15T12:44:29;10.30;99.90
54429;DHT22;40337;52.978;6.310;2023-04-15T12:46:56;10.20;99.90
54429;DHT22;40337;52.978;6.310;2023-04-15T12:49:23;10.10;99.90
54429;DHT22;40337;52.978;6.310;2023-04-15T12:51:53;10.20;99.90
54429;DHT22;40337;52.978;6.310;2023-04-15T12:54:19;10.20;99.90
54429;DHT22;40337;52.978;6.310;2023-04-15T12:56:45;10.20;99.90
54429;DHT22;40337;52.978;6.310;2023-04-15T12:59:12;10.20;99.90
54429;DHT22;40337;52.978;6.310;2023-04-15T13:01:38;10.30;99.90
54429;DHT22;40337;52.978;6.310;2023-04-15T13:04:04;10.30;99.90
54429;DHT22;40337;52.978;6.310;2023-04-15T13:06:31;10.40;99.90
54429;DHT22;40337;52.978;6.310;2023-04-15T13:08:58;10.40;99.90
54429;DHT22;40337;52.978;6.310;2023-04-15T13:11:26;10.40;99.90
54429;DHT22;40337;52.978;6.310;2023-04-15T13:13:51;10.40;99.90
54429;DHT22;40337;52.978;6.310;2023-04-15T13:16:17;10.40;99.90
54429;DHT22;40337;52.978;6.310;2023-04-15T13:18:43;10.40;99.90
54429;DHT22;40337;52.978;6.310;2023-04-15T13:21:11;10.40;99.90
54429;DHT22;40337;52.978;6.310;2023-04-15T13:23:37;10.40;99.90
54429;DHT22;40337;52.978;6.310;2023-04-15T13:26:02;10.30;99.90
54429;DHT22;40337;52.978;6.310;2023-04-15T13:28:28;10.30;99.90
54429;DHT22;40337;52.978;6.310;2023-04-15T13:30:54;10.30;99.90
54429;DHT22;40337;52.978;6.310;2023-04-15T13:33:19;10.30;99.90
54429;DHT22;40337;52.978;6.310;2023-04-15T13:35:45;10.20;99.90
54429;DHT22;40337;52.978;6.310;2023-04-15T13:38:10;10.20;99.90
54429;DHT22;40337;52.978;6.310;2023-04-15T13:40:36;10.20;99.90
54429;DHT22;40337;52.978;6.310;2023-04-15T13:43:01;10.30;99.90
54429;DHT22;40337;52.978;6.310;2023-04-15T13:45:28;10.30;99.90
54429;DHT22;40337;52.978;6.310;2023-04-15T13:47:54;10.40;99.90
54429;DHT22;40337;52.978;6.310;2023-04-15T13:50:20;10.30;99.90
54429;DHT22;40337;52.978;6.310;2023-04-15T13:52:46;10.20;99.90
54429;DHT22;40337;52.978;6.310;2023-04-15T13:55:11;10.10;99.90
54429;DHT22;40337;52.978;6.310;2023-04-15T13:57:37;10.10;99.90
54429;DHT22;40337;52.978;6.310;2023-04-15T14:00:03;10.00;99.90
54429;DHT22;40337;52.978;6.310;2023-04-15T14:02:29;10.00;99.90
54429;DHT22;40337;52.978;6.310;2023-04-15T14:04:54;10.00;99.90
54429;DHT22;40337;52.978;6.310;2023-04-15T14:07:20;9.90;99.90
54429;DHT22;40337;52.978;6.310;2023-04-15T14:09:46;9.80;99.90
54429;DHT22;40337;52.978;6.310;2023-04-15T14:12:12;9.80;99.90
54429;DHT22;40337;52.978;6.310;2023-04-15T14:14:38;9.80;99.90
54429;DHT22;40337;52.978;6.310;2023-04-15T14:17:04;9.80;99.90
54429;DHT22;40337;52.978;6.310;2023-04-15T14:19:30;9.70;99.90
54429;DHT22;40337;52.978;6.310;2023-04-15T14:21:56;9.70;99.90
54429;DHT22;40337;52.978;6.310;2023-04-15T14:24:22;9.60;99.90
54429;DHT22;40337;52.978;6.310;2023-04-15T14:26:47;9.60;99.90
54429;DHT22;40337;52.978;6.310;2023-04-15T14:29:13;9.50;99.90
54429;DHT22;40337;52.978;6.310;2023-04-15T14:31:38;9.50;99.90
54429;DHT22;40337;52.978;6.310;2023-04-15T14:34:04;9.40;99.90
54429;DHT22;40337;52.978;6.310;2023-04-15T14:36:30;9.40;99.90
54429;DHT22;40337;52.978;6.310;2023-04-15T14:38:56;9.40;99.90
54429;DHT22;40337;52.978;6.310;2023-04-15T14:41:22;9.40;99.90
54429;DHT22;40337;52.978;6.310;2023-04-15T14:43:48;9.30;99.90
54429;DHT22;40337;52.978;6.310;2023-04-15T14:46:14;9.30;99.90
54429;DHT22;40337;52.978;6.310;2023-04-15T14:48:39;9.30;99.90
54429;DHT22;40337;52.978;6.310;2023-04-15T14:51:05;9.30;99.90
54429;DHT22;40337;52.978;6.310;2023-04-15T14:53:31;9.30;99.90
54429;DHT22;40337;52.978;6.310;2023-04-15T14:55:57;9.30;99.90
54429;DHT22;40337;52.978;6.310;2023-04-15T14:58:22;9.30;99.90
54429;DHT22;40337;52.978;6.310;2023-04-15T15:00:48;9.30;99.90
54429;DHT22;40337;52.978;6.310;2023-04-15T15:03:13;9.30;99.90
54429;DHT22;40337;52.978;6.310;2023-04-15T15:05:40;9.30;99.90
54429;DHT22;40337;52.978;6.310;2023-04-15T15:08:06;9.30;99.90
54429;DHT22;40337;52.978;6.310;2023-04-15T15:10:33;9.20;99.90
54429;DHT22;40337;52.978;6.310;2023-04-15T15:12:58;9.20;99.90
54429;DHT22;40337;52.978;6.310;2023-04-15T15:15:24;9.20;99.90
54429;DHT22;40337;52.978;6.310;2023-04-15T15:17:50;9.10;99.90
54429;DHT22;40337;52.978;6.310;2023-04-15T15:20:16;9.10;99.90
54429;DHT22;40337;52.978;6.310;2023-04-15T15:22:42;9.10;99.90
54429;DHT22;40337;52.978;6.310;2023-04-15T15:25:07;9.00;99.90
54429;DHT22;40337;52.978;6.310;2023-04-15T15:27:33;9.00;99.90
54429;DHT22;40337;52.978;6.310;2023-04-15T15:29:59;9.00;99.90
54429;DHT22;40337;52.978;6.310;2023-04-15T15:32:24;9.00;99.90
54429;DHT22;40337;52.978;6.310;2023-04-15T15:34:50;9.00;99.90
54429;DHT22;40337;52.978;6.310;2023-04-15T15:37:15;9.00;99.90
54429;DHT22;40337;52.978;6.310;2023-04-15T15:39:41;9.00;99.90
54429;DHT22;40337;52.978;6.310;2023-04-15T15:42:07;8.90;99.90
54429;DHT22;40337;52.978;6.310;2023-04-15T15:44:32;8.90;99.90
54429;DHT22;40337;52.978;6.310;2023-04-15T15:46:58;8.90;99.90
54429;DHT22;40337;52.978;6.310;2023-04-15T15:49:24;8.90;99.90
54429;DHT22;40337;52.978;6.310;2023-04-15T15:51:50;8.90;99.90
54429;DHT22;40337;52.978;6.310;2023-04-15T15:54:16;8.90;99.90
54429;DHT22;40337;52.978;6.310;2023-04-15T15:56:41;8.90;99.90
54429;DHT22;40337;52.978;6.310;2023-04-15T15:59:07;8.90;99.90
54429;DHT22;40337;52.978;6.310;2023-04-15T16:01:33;8.80;99.90